Time;durP1;ratioP1;P1;durP2;ratioP2;P2;SDS_P1;SDS_P2;PMS_P1;PMS_P2;Temp;Humidity;BMP_temperature;BMP_pressure;BME280_temperature;BME280_humidity;BME280_pressure;Samples;Min_cycle;Max_cycle;Signal;HPM_P1;HPM_P2
2022/07/17 00:02:24;;;;;;;10.40;8.02;;;14.50;92.70;;;;;;4954998;28;94202;-69
2022/07/17 00:04:51;;;;;;;8.23;5.90;;;14.40;92.70;;;;;;4972421;28;92944;-69
2022/07/17 00:07:18;;;;;;;12.10;7.13;;;14.40;92.70;;;;;;4972066;28;92554;-69
2022/07/17 00:09:44;;;;;;;5.85;4.45;;;14.40;92.80;;;;;;4955966;28;92509;-69
2022/07/17 00:12:11;;;;;;;7.25;5.20;;;14.30;93.00;;;;;;4970384;28;94884;-69
2022/07/17 00:14:38;;;;;;;7.00;3.40;;;14.30;93.10;;;;;;4971919;28;95242;-69
2022/07/17 00:17:05;;;;;;;4.68;2.67;;;14.30;93.10;;;;;;4972046;28;92396;-69
2022/07/17 00:19:33;;;;;;;8.25;3.92;;;14.30;93.20;;;;;;4956846;28;92443;-71
2022/07/17 00:22:00;;;;;;;4.88;4.18;;;14.30;93.20;;;;;;4956752;28;93167;-71
2022/07/17 00:24:27;;;;;;;7.97;4.18;;;14.20;93.30;;;;;;4971417;28;92957;-71
2022/07/17 00:26:54;;;;;;;5.30;2.88;;;14.20;93.30;;;;;;4955865;28;92497;-70
2022/07/17 00:29:20;;;;;;;10.52;5.90;;;14.20;93.30;;;;;;4955697;28;91707;-71
2022/07/17 00:31:47;;;;;;;10.45;6.38;;;14.20;93.40;;;;;;4956351;28;93424;-71
2022/07/17 00:34:15;;;;;;;10.52;6.97;;;14.10;93.40;;;;;;4971586;28;93100;-71
2022/07/17 00:36:42;;;;;;;7.05;4.43;;;14.10;93.50;;;;;;4954163;28;95421;-69
2022/07/17 00:39:09;;;;;;;8.27;3.25;;;14.00;93.60;;;;;;4955573;28;92483;-69
2022/07/17 00:41:36;;;;;;;4.85;3.30;;;14.00;93.70;;;;;;4970992;28;94738;-69
2022/07/17 00:44:09;;;;;;;28.80;17.88;;;13.90;93.80;;;;;;4971167;28;104658;-69
2022/07/17 00:46:36;;;;;;;27.30;17.85;;;14.00;93.80;;;;;;4956159;28;92445;-69
2022/07/17 00:49:04;;;;;;;31.13;20.67;;;13.90;93.80;;;;;;4956093;28;92519;-69
2022/07/17 00:51:33;;;;;;;28.00;17.38;;;13.90;93.60;;;;;;4953266;28;94235;-69
2022/07/17 00:54:02;;;;;;;8.65;4.88;;;13.80;93.80;;;;;;4956273;28;92874;-69
2022/07/17 00:56:36;;;;;;;5.57;4.43;;;13.80;93.90;;;;;;4956410;28;92479;-69
2022/07/17 00:59:03;;;;;;;23.38;14.27;;;13.80;94.00;;;;;;4956480;28;92436;-69
2022/07/17 01:01:31;;;;;;;7.78;4.18;;;13.80;94.10;;;;;;4952394;28;95731;-69
2022/07/17 01:03:59;;;;;;;24.67;10.10;;;13.70;94.10;;;;;;4956221;28;94295;-69
2022/07/17 01:06:26;;;;;;;16.50;7.88;;;13.70;94.10;;;;;;4954592;28;92519;-69
2022/07/17 01:08:53;;;;;;;22.88;10.32;;;13.60;94.20;;;;;;4954836;28;92530;-69
2022/07/17 01:11:20;;;;;;;20.20;9.98;;;13.60;94.30;;;;;;4955065;28;93151;-69
2022/07/17 01:13:47;;;;;;;13.90;7.20;;;13.60;94.40;;;;;;4954703;28;93103;-69
2022/07/17 01:16:15;;;;;;;12.02;4.93;;;13.60;94.50;;;;;;4956291;28;92903;-69
2022/07/17 01:18:42;;;;;;;5.82;3.28;;;13.60;94.50;;;;;;4971272;28;91857;-69
2022/07/17 01:21:09;;;;;;;5.95;2.83;;;13.50;94.60;;;;;;4955955;28;93334;-69
2022/07/17 01:23:36;;;;;;;16.15;9.55;;;13.50;94.50;;;;;;4955444;28;101949;-69
2022/07/17 01:26:03;;;;;;;8.30;6.03;;;13.60;94.60;;;;;;4953460;28;95406;-69
2022/07/17 01:28:30;;;;;;;9.32;5.28;;;13.50;94.60;;;;;;4954523;28;92427;-69
2022/07/17 01:31:00;;;;;;;10.38;5.78;;;13.50;94.50;;;;;;4970647;28;93303;-69
2022/07/17 01:33:27;;;;;;;4.38;3.55;;;13.50;94.50;;;;;;4955453;28;93050;-69
2022/07/17 01:35:53;;;;;;;6.28;3.42;;;13.40;94.60;;;;;;4970883;28;92428;-69
2022/07/17 01:38:21;;;;;;;3.97;3.67;;;13.40;94.60;;;;;;4937907;28;92528;-69
2022/07/17 01:40:48;;;;;;;10.27;3.70;;;13.40;94.70;;;;;;4955664;28;93306;-69
2022/07/17 01:43:15;;;;;;;9.18;4.82;;;13.40;94.80;;;;;;4938330;28;95607;-69
2022/07/17 01:45:41;;;;;;;11.35;6.28;;;13.40;94.80;;;;;;4954152;28;92554;-69
2022/07/17 01:48:08;;;;;;;8.48;3.15;;;13.40;94.80;;;;;;4954435;28;92409;-69
2022/07/17 01:50:36;;;;;;;5.35;3.20;;;13.30;94.80;;;;;;4954124;28;95613;-69
2022/07/17 01:53:03;;;;;;;5.82;3.78;;;13.30;94.80;;;;;;4955660;28;95390;-69
2022/07/17 01:55:30;;;;;;;3.75;2.90;;;13.30;94.80;;;;;;4955673;28;92447;-69
2022/07/17 01:57:56;;;;;;;3.85;2.75;;;13.30;94.90;;;;;;4954535;28;92513;-69
2022/07/17 02:00:25;;;;;;;5.15;4.43;;;13.30;94.90;;;;;;4970390;28;93169;-69
2022/07/17 02:02:52;;;;;;;3.45;3.17;;;13.30;94.90;;;;;;4957345;28;92942;-69
2022/07/17 02:05:19;;;;;;;6.43;2.70;;;13.30;94.90;;;;;;4959075;28;92465;-69
2022/07/17 02:07:46;;;;;;;4.20;3.30;;;13.20;94.90;;;;;;4958991;28;92184;-69
2022/07/17 02:10:13;;;;;;;4.72;3.55;;;13.20;95.00;;;;;;4973841;28;98696;-69
2022/07/17 02:12:42;;;;;;;3.78;2.60;;;13.20;95.00;;;;;;4957464;28;93112;-69
2022/07/17 02:15:09;;;;;;;9.70;3.80;;;13.20;95.00;;;;;;4957981;28;94841;-69
2022/07/17 02:17:37;;;;;;;14.68;9.57;;;13.20;95.00;;;;;;4957692;28;92493;-69
2022/07/17 02:20:06;;;;;;;5.20;4.80;;;13.20;95.10;;;;;;4958646;28;93383;-69
2022/07/17 02:22:34;;;;;;;5.07;2.65;;;13.10;95.10;;;;;;4958166;28;92996;-69
2022/07/17 02:25:04;;;;;;;4.82;3.45;;;13.20;95.20;;;;;;4957568;28;92513;-69
2022/07/17 02:27:32;;;;;;;5.97;2.97;;;13.10;95.10;;;;;;4958673;28;92976;-69
2022/07/17 02:30:04;;;;;;;3.78;3.47;;;13.10;95.10;;;;;;4957335;28;95476;-69
2022/07/17 02:32:31;;;;;;;7.38;4.65;;;13.20;95.10;;;;;;4958196;28;92878;-69
2022/07/17 02:34:58;;;;;;;8.10;4.25;;;13.10;95.10;;;;;;4957775;28;92503;-69
2022/07/17 02:37:25;;;;;;;10.50;5.30;;;13.10;95.10;;;;;;4957493;28;92822;-69
2022/07/17 02:39:52;;;;;;;9.77;6.00;;;13.10;95.20;;;;;;4957023;28;98088;-69
2022/07/17 02:42:22;;;;;;;9.15;4.78;;;13.10;95.30;;;;;;4956654;28;95490;-69
2022/07/17 02:44:49;;;;;;;7.97;3.90;;;13.10;95.20;;;;;;4956587;28;102673;-69
2022/07/17 02:47:28;;;;;;;3.58;2.60;;;13.10;95.30;;;;;;4958208;28;92562;-69
2022/07/17 02:49:55;;;;;;;4.68;3.95;;;13.10;95.30;;;;;;4958438;28;93277;-69
2022/07/17 02:52:23;;;;;;;9.27;5.05;;;13.00;95.40;;;;;;4956526;28;95449;-69
2022/07/17 02:54:50;;;;;;;5.57;4.28;;;13.00;95.40;;;;;;4972947;28;92471;-69
2022/07/17 02:57:18;;;;;;;6.85;4.25;;;13.00;95.40;;;;;;4957202;28;91807;-69
2022/07/17 02:59:46;;;;;;;4.50;2.90;;;13.00;95.30;;;;;;4957709;28;94552;-69
2022/07/17 03:02:14;;;;;;;7.97;4.53;;;13.00;95.30;;;;;;4957427;28;92964;-69
2022/07/17 03:04:41;;;;;;;5.05;3.58;;;13.00;95.30;;;;;;4956836;28;94876;-69
2022/07/17 03:07:08;;;;;;;5.43;3.05;;;12.90;95.40;;;;;;4957226;28;92485;-69
2022/07/17 03:09:34;;;;;;;4.07;3.65;;;12.90;95.40;;;;;;4956479;28;93278;-69
2022/07/17 03:12:02;;;;;;;5.20;3.05;;;12.90;95.40;;;;;;4957834;28;93024;-69
2022/07/17 03:14:29;;;;;;;4.88;3.45;;;12.90;95.40;;;;;;4957392;28;92463;-69
2022/07/17 03:16:56;;;;;;;4.03;2.67;;;12.80;95.40;;;;;;4956766;28;92605;-69
2022/07/17 03:19:23;;;;;;;4.82;3.05;;;12.80;95.50;;;;;;4957570;28;93107;-69
2022/07/17 03:21:50;;;;;;;4.40;3.38;;;12.80;95.50;;;;;;4957944;28;94243;-69
2022/07/17 03:24:17;;;;;;;3.67;2.50;;;12.80;95.50;;;;;;4972904;28;92532;-69
2022/07/17 03:26:44;;;;;;;4.72;2.70;;;12.80;95.50;;;;;;4956459;28;92599;-69
2022/07/17 03:29:11;;;;;;;5.85;3.40;;;12.80;95.50;;;;;;4938624;28;98117;-69
2022/07/17 03:31:38;;;;;;;4.55;4.05;;;12.80;95.50;;;;;;4956866;28;105340;-69
2022/07/17 03:34:05;;;;;;;4.43;2.60;;;12.70;95.40;;;;;;4956722;28;92508;-69
2022/07/17 03:36:32;;;;;;;4.95;3.08;;;12.70;95.50;;;;;;4956239;28;92511;-69
2022/07/17 03:38:59;;;;;;;7.25;3.53;;;12.70;95.60;;;;;;4955704;28;95840;-69
2022/07/17 03:41:26;;;;;;;4.13;3.50;;;12.60;95.60;;;;;;4957150;28;93404;-69
2022/07/17 03:43:54;;;;;;;3.92;3.05;;;12.60;95.60;;;;;;4957532;28;92446;-69
2022/07/17 03:46:21;;;;;;;7.15;2.80;;;12.60;95.70;;;;;;4956889;28;92090;-69
2022/07/17 03:48:48;;;;;;;5.47;3.00;;;12.60;95.70;;;;;;4956913;28;93226;-69
2022/07/17 03:51:15;;;;;;;4.68;4.18;;;12.60;95.70;;;;;;4955972;28;94221;-69
2022/07/17 03:53:42;;;;;;;5.07;3.47;;;12.60;95.70;;;;;;4955056;28;94863;-69
2022/07/17 03:56:09;;;;;;;4.20;3.15;;;12.60;95.60;;;;;;4972464;28;92850;-69
2022/07/17 03:58:36;;;;;;;4.25;3.47;;;12.60;95.70;;;;;;4955107;28;104775;-68
2022/07/17 04:01:03;;;;;;;6.82;3.38;;;12.60;95.70;;;;;;4955259;28;95508;-69
2022/07/17 04:03:30;;;;;;;5.32;3.17;;;12.60;95.70;;;;;;4957568;28;92478;-69
2022/07/17 04:05:57;;;;;;;6.00;3.35;;;12.60;95.70;;;;;;4957151;28;92473;-69
2022/07/17 04:08:24;;;;;;;4.82;4.05;;;12.60;95.70;;;;;;4955516;28;93409;-69
2022/07/17 04:10:51;;;;;;;9.57;4.07;;;12.60;95.80;;;;;;4957450;28;93117;-69
2022/07/17 04:13:18;;;;;;;9.57;4.75;;;12.70;95.80;;;;;;4972321;28;92497;-69
2022/07/17 04:16:19;;;;;;;5.07;3.60;;;12.70;95.80;;;;;;4972273;28;92560;-68
2022/07/17 04:18:39;;;;;;;6.57;5.55;;;12.70;95.80;;;;;;4953436;28;95685;-69
2022/07/17 04:21:09;;;;;;;5.40;3.63;;;12.70;95.70;;;;;;4971212;28;94357;-69
2022/07/17 04:23:37;;;;;;;6.95;3.00;;;12.80;95.70;;;;;;4957239;28;93461;-68
2022/07/17 04:26:06;;;;;;;8.40;3.50;;;12.80;95.70;;;;;;4955321;28;92561;-69
2022/07/17 04:28:37;;;;;;;4.35;3.30;;;12.90;95.70;;;;;;4956558;28;93252;-69
2022/07/17 04:31:04;;;;;;;8.85;3.22;;;13.00;95.60;;;;;;4971298;28;92978;-69
2022/07/17 04:33:31;;;;;;;6.47;4.82;;;13.10;95.60;;;;;;4955697;28;92464;-69
2022/07/17 04:35:58;;;;;;;4.80;3.30;;;13.20;95.60;;;;;;4957238;28;92263;-69
2022/07/17 04:38:25;;;;;;;7.68;3.90;;;13.30;95.50;;;;;;4956306;28;93281;-69
2022/07/17 04:40:52;;;;;;;7.05;3.63;;;13.30;95.40;;;;;;4956342;28;93008;-69
2022/07/17 04:43:19;;;;;;;5.60;5.03;;;13.40;95.40;;;;;;4970249;28;102639;-69
2022/07/17 04:45:46;;;;;;;7.88;3.63;;;13.50;95.30;;;;;;4956895;28;92513;-69
2022/07/17 04:48:13;;;;;;;4.65;3.20;;;13.60;95.30;;;;;;4955970;28;93377;-69
2022/07/17 04:50:40;;;;;;;5.85;3.10;;;13.60;95.30;;;;;;4971670;28;92913;-69
2022/07/17 04:53:07;;;;;;;4.13;3.53;;;13.70;95.30;;;;;;4955395;28;92913;-69
2022/07/17 04:55:34;;;;;;;6.30;3.53;;;13.80;95.20;;;;;;4956493;28;92533;-69
2022/07/17 04:58:01;;;;;;;5.25;3.78;;;13.90;95.20;;;;;;4955983;28;93250;-69
2022/07/17 05:00:28;;;;;;;4.25;3.22;;;13.90;95.20;;;;;;4955184;28;92997;-69
2022/07/17 05:02:55;;;;;;;6.60;4.97;;;14.00;95.20;;;;;;4954701;28;92643;-69
2022/07/17 05:05:22;;;;;;;4.82;2.90;;;14.10;95.10;;;;;;4954675;28;94693;-69
2022/07/17 05:07:49;;;;;;;6.20;4.03;;;14.20;95.00;;;;;;4954322;28;95784;-69
2022/07/17 05:10:16;;;;;;;3.45;2.95;;;14.30;95.00;;;;;;4956109;28;95136;-69
2022/07/17 05:12:43;;;;;;;9.57;4.43;;;14.40;94.90;;;;;;4954984;28;92579;-69
2022/07/17 05:15:10;;;;;;;6.65;3.38;;;14.50;94.70;;;;;;4955950;28;92431;-69
2022/07/17 05:17:38;;;;;;;4.97;3.70;;;14.60;94.60;;;;;;4954163;28;95864;-69
2022/07/17 05:20:06;;;;;;;5.03;3.60;;;14.70;94.50;;;;;;4955930;28;93055;-69
2022/07/17 05:22:33;;;;;;;4.65;3.85;;;14.70;94.30;;;;;;4954947;28;92544;-69
2022/07/17 05:25:00;;;;;;;4.95;3.20;;;14.80;94.10;;;;;;4956224;28;91911;-69
2022/07/17 05:27:27;;;;;;;6.25;3.15;;;14.90;94.00;;;;;;4955839;28;93311;-70
2022/07/17 05:29:54;;;;;;;5.18;3.03;;;14.90;93.90;;;;;;4970651;28;93127;-70
2022/07/17 05:32:21;;;;;;;6.60;3.08;;;15.00;93.80;;;;;;4955021;28;94881;-70
2022/07/17 05:34:48;;;;;;;3.50;3.20;;;15.10;93.70;;;;;;4956114;28;92442;-69
2022/07/17 05:37:15;;;;;;;5.78;3.47;;;15.10;93.60;;;;;;4971480;28;93012;-70
2022/07/17 05:39:42;;;;;;;4.68;2.78;;;15.20;93.60;;;;;;4958152;28;93048;-69
2022/07/17 05:42:09;;;;;;;4.43;3.72;;;15.30;93.50;;;;;;4959355;28;92496;-70
2022/07/17 05:44:36;;;;;;;4.35;3.13;;;15.40;93.40;;;;;;4958728;28;101122;-70
2022/07/17 05:47:03;;;;;;;6.45;2.95;;;15.40;93.40;;;;;;4958728;28;93339;-69
2022/07/17 05:49:30;;;;;;;5.15;4.35;;;15.60;93.30;;;;;;4974894;28;93018;-70
2022/07/17 05:51:57;;;;;;;4.78;4.03;;;15.60;93.20;;;;;;4959335;28;92448;-70
2022/07/17 05:54:24;;;;;;;3.33;2.83;;;15.70;93.20;;;;;;4974454;28;92485;-69
2022/07/17 05:56:51;;;;;;;3.28;2.70;;;15.80;93.10;;;;;;4956153;28;98186;-70
2022/07/17 05:59:18;;;;;;;4.75;3.10;;;15.90;93.00;;;;;;4973863;28;95391;-70
2022/07/17 06:01:45;;;;;;;4.55;3.80;;;16.00;92.80;;;;;;4941136;28;92486;-70
2022/07/17 06:04:12;;;;;;;4.80;2.92;;;16.10;92.80;;;;;;4958866;28;92479;-70
2022/07/17 06:06:39;;;;;;;3.45;2.13;;;16.20;92.60;;;;;;4941314;28;94150;-70
2022/07/17 06:09:06;;;;;;;4.43;3.50;;;16.30;92.50;;;;;;4958815;28;93194;-69
2022/07/17 06:11:33;;;;;;;4.75;3.10;;;16.40;92.40;;;;;;4958941;28;92433;-70
2022/07/17 06:14:03;;;;;;;3.80;2.10;;;16.50;92.30;;;;;;4959113;28;91764;-69
2022/07/17 06:16:30;;;;;;;3.53;2.65;;;16.60;92.10;;;;;;4958215;28;100952;-70
2022/07/17 06:18:57;;;;;;;5.10;2.50;;;16.70;92.10;;;;;;4958630;28;92787;-70
2022/07/17 06:21:24;;;;;;;5.95;2.72;;;16.70;92.00;;;;;;4958124;28;94915;-70
2022/07/17 06:23:51;;;;;;;5.72;2.47;;;16.90;91.90;;;;;;4958773;28;92479;-70
2022/07/17 06:26:18;;;;;;;5.55;2.78;;;16.90;91.90;;;;;;4973044;28;93265;-70
2022/07/17 06:28:46;;;;;;;3.63;2.13;;;17.00;91.80;;;;;;4941187;28;95478;-70
2022/07/17 06:31:13;;;;;;;4.93;2.55;;;17.10;91.80;;;;;;4973768;28;92623;-69
2022/07/17 06:33:40;;;;;;;2.92;2.17;;;17.20;91.90;;;;;;4973762;28;92450;-70
2022/07/17 06:36:07;;;;;;;3.20;2.35;;;17.20;91.80;;;;;;4957859;28;93186;-69
2022/07/17 06:38:34;;;;;;;3.28;1.83;;;17.30;91.80;;;;;;4957498;28;95849;-70
2022/07/17 06:41:01;;;;;;;5.43;1.95;;;17.40;91.70;;;;;;4958537;28;92411;-70
2022/07/17 06:43:28;;;;;;;4.72;2.35;;;17.70;91.60;;;;;;4973641;28;92507;-70
2022/07/17 06:45:55;;;;;;;2.08;1.88;;;17.80;91.30;;;;;;4955295;28;98245;-70
2022/07/17 06:48:23;;;;;;;4.70;3.58;;;18.00;91.20;;;;;;4955080;28;109592;-70
2022/07/17 06:50:50;;;;;;;4.20;2.67;;;18.10;91.00;;;;;;4957331;28;92482;-70
2022/07/17 06:53:17;;;;;;;5.65;2.42;;;18.20;91.00;;;;;;4958398;28;92442;-70
2022/07/17 06:55:44;;;;;;;4.78;1.90;;;18.30;90.90;;;;;;4958069;28;93896;-70
2022/07/17 06:58:11;;;;;;;7.25;3.40;;;18.50;90.80;;;;;;4956784;28;93284;-70
2022/07/17 07:00:38;;;;;;;3.38;1.60;;;18.60;90.70;;;;;;4956676;28;92406;-70
2022/07/17 07:03:05;;;;;;;4.43;2.30;;;18.80;90.60;;;;;;4940931;28;91753;-70
2022/07/17 07:05:33;;;;;;;5.55;2.97;;;19.00;90.40;;;;;;4956241;28;94300;-70
2022/07/17 07:08:00;;;;;;;4.57;1.98;;;19.20;90.00;;;;;;4956653;28;93069;-70
2022/07/17 07:10:27;;;;;;;2.75;1.92;;;19.50;89.50;;;;;;4939275;28;94861;-70
2022/07/17 07:12:54;;;;;;;4.13;1.50;;;19.90;88.10;;;;;;4973304;28;92993;-70
2022/07/17 07:15:23;;;;;;;4.68;2.10;;;20.20;86.90;;;;;;4957497;28;93239;-70
2022/07/17 07:17:50;;;;;;;6.18;1.70;;;20.50;86.10;;;;;;4957856;28;92823;-70
2022/07/17 07:20:17;;;;;;;6.82;2.67;;;20.70;84.70;;;;;;4958096;28;92719;-70
2022/07/17 07:22:44;;;;;;;4.93;2.85;;;20.90;83.30;;;;;;4972727;28;96899;-70
2022/07/17 07:25:11;;;;;;;3.53;1.55;;;21.10;82.60;;;;;;4957216;28;93194;-69
2022/07/17 07:27:38;;;;;;;2.75;1.30;;;21.20;81.70;;;;;;4958205;28;92880;-70
2022/07/17 07:30:09;;;;;;;4.75;1.48;;;21.30;81.10;;;;;;4958127;28;92900;-70
2022/07/17 07:32:38;;;;;;;4.20;3.22;;;21.40;80.50;;;;;;4958126;28;92674;-70
2022/07/17 07:35:06;;;;;;;8.95;2.67;;;21.50;80.00;;;;;;4954520;28;95775;-70
2022/07/17 07:37:33;;;;;;;2.78;2.58;;;21.60;79.60;;;;;;4957625;28;95265;-70
2022/07/17 07:40:01;;;;;;;6.03;2.42;;;21.60;78.80;;;;;;4956356;28;92543;-70
2022/07/17 07:42:28;;;;;;;5.30;1.50;;;21.70;78.30;;;;;;4957602;28;93090;-69
2022/07/17 07:44:55;;;;;;;4.00;2.45;;;21.80;77.70;;;;;;4957135;28;92405;-70
2022/07/17 07:47:22;;;;;;;4.57;2.40;;;21.80;77.20;;;;;;4957160;28;92917;-70
2022/07/17 07:49:49;;;;;;;3.80;1.83;;;22.00;76.80;;;;;;4957618;28;92426;-70
2022/07/17 07:52:16;;;;;;;4.57;1.50;;;22.10;76.80;;;;;;4957687;28;92358;-70
2022/07/17 07:54:44;;;;;;;3.72;3.38;;;22.10;75.70;;;;;;4957056;28;93237;-70
2022/07/17 07:57:10;;;;;;;5.90;2.58;;;22.20;76.00;;;;;;4955551;28;95707;-70
2022/07/17 07:59:38;;;;;;;5.30;1.50;;;22.40;75.30;;;;;;4955326;28;100380;-70
2022/07/17 08:02:05;;;;;;;2.95;1.17;;;22.50;74.60;;;;;;4956197;28;92748;-70
2022/07/17 08:04:32;;;;;;;4.57;2.75;;;22.60;74.30;;;;;;4956362;28;93135;-70
2022/07/17 08:06:59;;;;;;;10.55;2.75;;;22.70;74.00;;;;;;4957060;28;92928;-70
2022/07/17 08:09:26;;;;;;;4.53;1.25;;;22.90;73.30;;;;;;4957262;28;93371;-70
2022/07/17 08:11:53;;;;;;;4.25;1.65;;;23.10;72.70;;;;;;4957489;28;92887;-70
2022/07/17 08:14:20;;;;;;;4.70;2.50;;;23.30;71.70;;;;;;4956515;28;93316;-70
2022/07/17 08:16:47;;;;;;;5.10;2.13;;;23.40;71.00;;;;;;4957161;28;92868;-71
2022/07/17 08:19:14;;;;;;;5.43;1.98;;;23.50;70.40;;;;;;4956996;28;92582;-70
2022/07/17 08:21:41;;;;;;;4.80;2.65;;;23.50;70.40;;;;;;4957356;28;92781;-70
2022/07/17 08:24:08;;;;;;;5.00;2.08;;;23.50;69.80;;;;;;4953153;28;113064;-70
2022/07/17 08:26:35;;;;;;;4.85;1.63;;;23.50;70.60;;;;;;4956586;28;95495;-70
2022/07/17 08:29:02;;;;;;;5.40;1.92;;;23.70;70.00;;;;;;4955667;28;92591;-70
2022/07/17 08:31:29;;;;;;;4.45;1.55;;;23.90;69.50;;;;;;4955408;28;93629;-70
2022/07/17 08:33:56;;;;;;;4.65;2.58;;;24.20;69.30;;;;;;4954995;28;95626;-70
2022/07/17 08:36:22;;;;;;;3.95;1.50;;;24.50;68.50;;;;;;4956604;28;93036;-70
2022/07/17 08:38:49;;;;;;;7.72;1.70;;;24.80;67.70;;;;;;4955613;28;92403;-71
2022/07/17 08:41:17;;;;;;;7.53;1.80;;;25.10;66.60;;;;;;4956916;28;91735;-70
2022/07/17 08:43:47;;;;;;;7.50;2.05;;;25.50;65.90;;;;;;4956164;28;93186;-70
2022/07/17 08:46:55;;;;;;;4.28;3.78;;;26.00;65.00;;;;;;4954535;28;96146;-70
2022/07/17 08:49:23;;;;;;;6.28;2.33;;;26.50;62.90;;;;;;4955353;28;94812;-70
2022/07/17 08:51:50;;;;;;;2.95;1.50;;;27.00;62.00;;;;;;4956665;28;93007;-71
2022/07/17 08:54:18;;;;;;;4.38;2.92;;;27.70;61.20;;;;;;4956216;28;93358;-69
2022/07/17 08:56:45;;;;;;;2.50;2.00;;;28.50;59.50;;;;;;4956351;28;93006;-69
2022/07/17 08:59:12;;;;;;;2.13;1.40;;;29.20;57.50;;;;;;4956535;28;92549;-69
2022/07/17 09:01:39;;;;;;;4.65;2.78;;;29.70;56.50;;;;;;4955878;28;92597;-69
2022/07/17 09:04:06;;;;;;;3.88;1.65;;;30.30;55.50;;;;;;4955987;28;93300;-69
2022/07/17 09:06:33;;;;;;;4.30;2.10;;;30.60;52.60;;;;;;4971268;28;92965;-69
2022/07/17 09:09:10;;;;;;;4.38;2.22;;;30.70;51.60;;;;;;4956589;28;93336;-70
2022/07/17 09:11:50;;;;;;;4.65;1.40;;;30.70;50.60;;;;;;4955426;28;92545;-70
2022/07/17 09:14:19;;;;;;;2.65;1.25;;;30.50;49.90;;;;;;4955064;28;96476;-69
2022/07/17 09:16:57;;;;;;;4.25;1.85;;;30.10;50.90;;;;;;4955962;28;95431;-70
2022/07/17 09:19:31;;;;;;;5.75;2.38;;;29.80;52.00;;;;;;4971035;28;92601;-69
2022/07/17 09:22:24;;;;;;;4.95;1.55;;;29.30;52.80;;;;;;4970929;28;92580;-69
2022/07/17 09:24:54;;;;;;;4.97;2.05;;;28.80;53.20;;;;;;4952697;28;97320;-69
2022/07/17 09:27:24;;;;;;;5.18;2.53;;;28.20;54.30;;;;;;4956418;28;92964;-69
2022/07/17 09:30:01;;;;;;;4.00;1.55;;;27.80;54.90;;;;;;4956223;28;92457;-69
2022/07/17 09:32:33;;;;;;;5.47;2.97;;;27.40;55.90;;;;;;4954658;28;92217;-69
2022/07/17 09:35:02;;;;;;;3.40;2.35;;;27.00;56.80;;;;;;4956049;28;93273;-69
2022/07/17 09:37:30;;;;;;;3.13;2.65;;;26.60;57.00;;;;;;4955814;28;93132;-69
2022/07/17 09:39:58;;;;;;;5.45;2.17;;;26.30;58.30;;;;;;4953157;28;99386;-69
2022/07/17 09:42:32;;;;;;;3.38;1.50;;;26.10;57.80;;;;;;4955345;28;92377;-69
2022/07/17 09:45:10;;;;;;;3.30;2.10;;;25.80;59.30;;;;;;4954389;28;93403;-69
2022/07/17 09:47:39;;;;;;;5.32;1.50;;;25.50;59.50;;;;;;4955614;28;95818;-69
2022/07/17 09:50:08;;;;;;;4.25;2.10;;;25.30;60.10;;;;;;4955881;28;92484;-69
2022/07/17 09:52:38;;;;;;;5.53;2.90;;;25.20;60.30;;;;;;4953881;28;92524;-69
2022/07/17 09:55:05;;;;;;;3.35;1.50;;;25.10;60.10;;;;;;4955762;28;93318;-69
2022/07/17 09:57:54;;;;;;;5.05;2.38;;;24.90;60.50;;;;;;4956194;28;91841;-69
2022/07/17 10:00:24;;;;;;;4.68;2.00;;;24.80;61.30;;;;;;4954721;28;92840;-69
2022/07/17 10:02:52;;;;;;;4.63;1.67;;;24.70;61.40;;;;;;4970343;28;92520;-69
2022/07/17 10:05:19;;;;;;;3.67;1.85;;;24.70;61.70;;;;;;4952692;28;98251;-69
2022/07/17 10:07:47;;;;;;;3.63;1.50;;;24.50;61.70;;;;;;4953937;28;98138;-69
2022/07/17 10:10:16;;;;;;;3.63;1.33;;;24.50;61.90;;;;;;4953936;28;92465;-69
2022/07/17 10:12:45;;;;;;;3.47;2.00;;;24.40;63.10;;;;;;4955310;28;92365;-69
2022/07/17 10:15:13;;;;;;;4.85;2.88;;;24.40;63.40;;;;;;4954069;28;94447;-69
2022/07/17 10:17:40;;;;;;;4.60;1.85;;;24.30;63.60;;;;;;4953633;28;95427;-69
2022/07/17 10:20:13;;;;;;;5.93;1.65;;;24.30;63.40;;;;;;4955295;28;92673;-69
2022/07/17 10:22:45;;;;;;;3.75;2.08;;;24.30;63.40;;;;;;4954816;28;91775;-69
2022/07/17 10:25:17;;;;;;;3.50;1.73;;;24.40;63.50;;;;;;4957542;28;93195;-69
2022/07/17 10:27:51;;;;;;;4.55;1.83;;;24.40;63.50;;;;;;4958567;28;92929;-69
2022/07/17 10:30:26;;;;;;;5.28;2.65;;;24.40;63.50;;;;;;4957228;28;94770;-69
2022/07/17 10:32:56;;;;;;;3.05;2.55;;;24.40;63.30;;;;;;4957270;28;92445;-69
2022/07/17 10:35:23;;;;;;;3.05;1.95;;;24.40;62.90;;;;;;4958710;28;93355;-69
2022/07/17 10:37:50;;;;;;;5.25;1.95;;;24.50;63.10;;;;;;4958671;28;92457;-68
2022/07/17 10:40:19;;;;;;;4.47;2.00;;;24.50;63.20;;;;;;4958344;28;92396;-69
2022/07/17 10:43:01;;;;;;;6.47;3.05;;;24.50;63.70;;;;;;4958276;28;92572;-69
2022/07/17 10:45:37;;;;;;;4.82;2.60;;;24.50;63.30;;;;;;4958576;28;93335;-69
2022/07/17 10:48:06;;;;;;;4.35;2.17;;;24.30;63.70;;;;;;4958894;28;93069;-69
2022/07/17 10:50:36;;;;;;;3.28;2.45;;;24.30;63.70;;;;;;4958046;28;92480;-69
2022/07/17 10:53:25;;;;;;;4.35;1.50;;;24.40;63.50;;;;;;4957024;28;93031;-69
2022/07/17 10:55:56;;;;;;;5.22;1.85;;;24.40;63.30;;;;;;4957041;28;95724;-69
2022/07/17 10:58:25;;;;;;;3.45;2.00;;;24.40;63.20;;;;;;4958111;28;94366;-69
2022/07/17 11:01:12;;;;;;;3.83;1.73;;;24.50;63.30;;;;;;4957614;28;92516;-69
2022/07/17 11:03:46;;;;;;;3.70;2.25;;;24.70;62.80;;;;;;4958294;28;92419;-69
2022/07/17 11:06:17;;;;;;;4.97;2.67;;;24.80;62.70;;;;;;4956703;28;94190;-71
2022/07/17 11:08:50;;;;;;;5.57;1.80;;;24.90;62.70;;;;;;4957801;28;93131;-69
2022/07/17 11:11:20;;;;;;;3.97;3.58;;;25.00;62.10;;;;;;4958436;28;92451;-69
2022/07/17 11:14:06;;;;;;;2.78;1.60;;;25.10;61.90;;;;;;4958530;28;91853;-69
2022/07/17 11:16:33;;;;;;;6.00;2.53;;;25.10;62.00;;;;;;4958178;28;92577;-69
2022/07/17 11:19:00;;;;;;;4.40;1.70;;;25.10;62.20;;;;;;4971483;28;111325;-69
2022/07/17 11:21:27;;;;;;;2.83;2.63;;;25.20;62.10;;;;;;4957087;28;94850;-69
2022/07/17 11:23:56;;;;;;;5.57;2.28;;;25.30;62.00;;;;;;4956463;28;92551;-69
2022/07/17 11:26:23;;;;;;;4.18;1.70;;;25.30;61.60;;;;;;4956696;28;93487;-69
2022/07/17 11:28:51;;;;;;;2.92;1.65;;;25.40;61.70;;;;;;4955830;28;93381;-69
2022/07/17 11:31:25;;;;;;;4.35;1.80;;;25.30;62.00;;;;;;4958070;28;92559;-69
2022/07/17 11:33:57;;;;;;;3.85;2.80;;;25.30;62.20;;;;;;4956266;28;92559;-69
2022/07/17 11:36:35;;;;;;;4.85;1.85;;;25.30;62.10;;;;;;4956792;28;93378;-69
2022/07/17 11:39:06;;;;;;;3.85;2.85;;;25.40;62.20;;;;;;4956313;28;92957;-69
2022/07/17 11:41:38;;;;;;;6.15;3.17;;;25.30;61.90;;;;;;4957908;28;92468;-69
2022/07/17 11:44:09;;;;;;;3.00;2.00;;;25.30;61.90;;;;;;4957861;28;92365;-69
2022/07/17 11:46:39;;;;;;;5.30;2.65;;;25.30;61.70;;;;;;4956246;28;95700;-69
2022/07/17 11:49:07;;;;;;;3.53;1.73;;;25.30;61.70;;;;;;4971513;28;95475;-69
2022/07/17 11:51:43;;;;;;;4.85;2.38;;;25.40;62.40;;;;;;4957539;28;92559;-69
2022/07/17 11:54:15;;;;;;;2.92;2.05;;;25.50;62.20;;;;;;4957760;28;92454;-69
2022/07/17 11:56:51;;;;;;;2.78;1.63;;;25.50;61.80;;;;;;4955949;28;94254;-69
2022/07/17 11:59:25;;;;;;;5.38;1.75;;;25.70;61.60;;;;;;4955993;28;93162;-69
2022/07/17 12:01:52;;;;;;;3.17;2.08;;;25.90;61.30;;;;;;4957150;28;92404;-69
2022/07/17 12:04:20;;;;;;;4.07;1.90;;;25.90;60.60;;;;;;4957661;28;92414;-69
2022/07/17 12:07:00;;;;;;;2.85;2.65;;;26.00;60.60;;;;;;4956954;28;93323;-69
2022/07/17 12:09:29;;;;;;;3.47;3.05;;;26.10;60.50;;;;;;4957239;28;92930;-69
2022/07/17 12:11:56;;;;;;;3.90;2.10;;;26.10;59.80;;;;;;4954478;28;94934;-69
2022/07/17 12:14:23;;;;;;;3.67;3.38;;;26.20;59.70;;;;;;4955888;28;92997;-69
2022/07/17 12:16:50;;;;;;;3.42;1.70;;;26.30;59.20;;;;;;4956737;28;93250;-69
2022/07/17 12:19:19;;;;;;;2.88;2.42;;;26.40;59.50;;;;;;4957015;28;93132;-69
2022/07/17 12:22:02;;;;;;;2.28;2.15;;;26.40;59.20;;;;;;4955464;28;92609;-69
2022/07/17 12:24:32;;;;;;;3.60;1.65;;;26.60;58.40;;;;;;4957323;28;93236;-69
2022/07/17 12:27:03;;;;;;;3.30;2.97;;;26.60;58.60;;;;;;4956167;28;93325;-69
2022/07/17 12:29:31;;;;;;;4.18;2.67;;;26.60;57.80;;;;;;4957226;28;92805;-69
2022/07/17 12:32:06;;;;;;;2.95;1.80;;;26.50;57.80;;;;;;4956846;28;92506;-69
2022/07/17 12:34:44;;;;;;;4.00;2.03;;;26.60;58.00;;;;;;4957129;28;92392;-69
2022/07/17 12:37:12;;;;;;;3.05;2.83;;;26.60;58.20;;;;;;4953691;28;98203;-69
2022/07/17 12:39:39;;;;;;;3.38;2.08;;;26.60;58.40;;;;;;4956347;28;95420;-69
2022/07/17 12:42:07;;;;;;;2.35;1.90;;;26.70;57.80;;;;;;4956792;28;92545;-69
2022/07/17 12:44:34;;;;;;;2.97;2.75;;;26.80;58.10;;;;;;4955358;28;92457;-69
2022/07/17 12:47:02;;;;;;;2.95;1.70;;;26.90;58.30;;;;;;4955904;28;92434;-69
2022/07/17 12:49:30;;;;;;;4.25;3.17;;;27.00;57.30;;;;;;4956639;28;93006;-69
2022/07/17 12:51:57;;;;;;;2.90;2.25;;;27.10;57.40;;;;;;4954563;28;100199;-68
2022/07/17 12:54:24;;;;;;;2.55;2.05;;;27.20;56.80;;;;;;4956897;28;91780;-69